sensor_id;sensor_type;location;lat;lon;timestamp;P1;durP1;ratioP1;P2;durP2;ratioP2
789;SDS011;378;48.844;9.156;2022-09-04T00:02:11;7.07;;;4.63;;
789;SDS011;378;48.844;9.156;2022-09-04T00:04:49;8.30;;;4.00;;
789;SDS011;378;48.844;9.156;2022-09-04T00:07:26;9.38;;;3.90;;
789;SDS011;378;48.844;9.156;2022-09-04T00:09:58;5.95;;;3.20;;
789;SDS011;378;48.844;9.156;2022-09-04T00:12:40;5.15;;;3.30;;
789;SDS011;378;48.844;9.156;2022-09-04T00:15:13;9.48;;;3.80;;
789;SDS011;378;48.844;9.156;2022-09-04T00:17:45;6.32;;;3.70;;
789;SDS011;378;48.844;9.156;2022-09-04T00:20:24;8.63;;;3.75;;
789;SDS011;378;48.844;9.156;2022-09-04T00:23:00;5.35;;;3.58;;
789;SDS011;378;48.844;9.156;2022-09-04T00:25:34;4.75;;;3.33;;
789;SDS011;378;48.844;9.156;2022-09-04T00:28:10;7.38;;;3.45;;
789;SDS011;378;48.844;9.156;2022-09-04T00:30:44;4.70;;;3.10;;
789;SDS011;378;48.844;9.156;2022-09-04T00:33:17;5.53;;;2.70;;
789;SDS011;378;48.844;9.156;2022-09-04T00:35:51;9.23;;;3.33;;
789;SDS011;378;48.844;9.156;2022-09-04T00:38:29;3.58;;;2.60;;
789;SDS011;378;48.844;9.156;2022-09-04T00:41:03;10.57;;;2.80;;
789;SDS011;378;48.844;9.156;2022-09-04T00:43:44;7.00;;;2.70;;
789;SDS011;378;48.844;9.156;2022-09-04T00:49:23;4.47;;;2.75;;
789;SDS011;378;48.844;9.156;2022-09-04T00:52:10;6.45;;;3.22;;
789;SDS011;378;48.844;9.156;2022-09-04T00:54:53;6.57;;;2.80;;
789;SDS011;378;48.844;9.156;2022-09-04T00:57:54;4.75;;;3.00;;
789;SDS011;378;48.844;9.156;2022-09-04T01:00:46;4.60;;;3.47;;
789;SDS011;378;48.844;9.156;2022-09-04T01:03:17;9.57;;;3.42;;
789;SDS011;378;48.844;9.156;2022-09-04T01:06:09;8.70;;;3.10;;
789;SDS011;378;48.844;9.156;2022-09-04T01:09:09;14.25;;;3.50;;
789;SDS011;378;48.844;9.156;2022-09-04T01:11:48;6.68;;;3.40;;
789;SDS011;378;48.844;9.156;2022-09-04T01:14:22;5.47;;;3.33;;
789;SDS011;378;48.844;9.156;2022-09-04T01:17:03;5.88;;;3.35;;
789;SDS011;378;48.844;9.156;2022-09-04T01:19:41;5.68;;;3.60;;
789;SDS011;378;48.844;9.156;2022-09-04T01:22:20;7.78;;;3.28;;
789;SDS011;378;48.844;9.156;2022-09-04T01:24:58;4.57;;;3.40;;
789;SDS011;378;48.844;9.156;2022-09-04T01:27:41;5.65;;;3.47;;
789;SDS011;378;48.844;9.156;2022-09-04T01:30:16;6.07;;;3.92;;
789;SDS011;378;48.844;9.156;2022-09-04T01:32:47;8.73;;;4.00;;
789;SDS011;378;48.844;9.156;2022-09-04T01:35:24;5.45;;;3.38;;
789;SDS011;378;48.844;9.156;2022-09-04T01:38:01;9.60;;;4.10;;
789;SDS011;378;48.844;9.156;2022-09-04T01:40:36;8.75;;;3.70;;
789;SDS011;378;48.844;9.156;2022-09-04T01:43:08;7.88;;;4.57;;
789;SDS011;378;48.844;9.156;2022-09-04T01:48:53;6.72;;;3.95;;
789;SDS011;378;48.844;9.156;2022-09-04T01:51:29;9.80;;;4.10;;
789;SDS011;378;48.844;9.156;2022-09-04T01:54:07;6.22;;;3.92;;
789;SDS011;378;48.844;9.156;2022-09-04T01:56:42;7.65;;;4.18;;
789;SDS011;378;48.844;9.156;2022-09-04T01:59:17;7.65;;;4.25;;
789;SDS011;378;48.844;9.156;2022-09-04T02:01:51;8.05;;;4.43;;
789;SDS011;378;48.844;9.156;2022-09-04T02:04:25;5.55;;;3.65;;
789;SDS011;378;48.844;9.156;2022-09-04T02:06:58;6.90;;;4.03;;
789;SDS011;378;48.844;9.156;2022-09-04T02:09:36;7.88;;;4.63;;
789;SDS011;378;48.844;9.156;2022-09-04T02:12:17;6.57;;;4.13;;
789;SDS011;378;48.844;9.156;2022-09-04T02:14:57;9.68;;;4.28;;
789;SDS011;378;48.844;9.156;2022-09-04T02:17:34;7.22;;;4.18;;
789;SDS011;378;48.844;9.156;2022-09-04T02:20:11;7.88;;;4.47;;
789;SDS011;378;48.844;9.156;2022-09-04T02:22:48;8.30;;;4.40;;
789;SDS011;378;48.844;9.156;2022-09-04T02:25:29;7.20;;;4.28;;
789;SDS011;378;48.844;9.156;2022-09-04T02:28:12;10.30;;;5.28;;
789;SDS011;378;48.844;9.156;2022-09-04T02:30:49;10.75;;;5.15;;
789;SDS011;378;48.844;9.156;2022-09-04T02:33:24;6.97;;;4.25;;
789;SDS011;378;48.844;9.156;2022-09-04T02:36:02;8.80;;;4.78;;
789;SDS011;378;48.844;9.156;2022-09-04T02:38:36;8.75;;;4.53;;
789;SDS011;378;48.844;9.156;2022-09-04T02:41:13;6.50;;;3.90;;
789;SDS011;378;48.844;9.156;2022-09-04T02:43:54;7.70;;;4.60;;
789;SDS011;378;48.844;9.156;2022-09-04T02:46:32;7.97;;;4.15;;
789;SDS011;378;48.844;9.156;2022-09-04T02:49:11;6.78;;;3.75;;
789;SDS011;378;48.844;9.156;2022-09-04T02:51:49;6.25;;;3.88;;
789;SDS011;378;48.844;9.156;2022-09-04T02:54:26;7.40;;;4.32;;
789;SDS011;378;48.844;9.156;2022-09-04T02:57:14;5.93;;;3.75;;
789;SDS011;378;48.844;9.156;2022-09-04T02:59:49;9.75;;;4.93;;
789;SDS011;378;48.844;9.156;2022-09-04T03:02:28;6.28;;;4.07;;
789;SDS011;378;48.844;9.156;2022-09-04T03:05:00;5.72;;;3.63;;
789;SDS011;378;48.844;9.156;2022-09-04T03:07:32;5.70;;;3.75;;
789;SDS011;378;48.844;9.156;2022-09-04T03:10:03;7.03;;;3.90;;
789;SDS011;378;48.844;9.156;2022-09-04T03:12:36;6.50;;;3.92;;
789;SDS011;378;48.844;9.156;2022-09-04T03:15:12;7.93;;;4.03;;
789;SDS011;378;48.844;9.156;2022-09-04T03:17:48;8.52;;;4.57;;
789;SDS011;378;48.844;9.156;2022-09-04T03:20:23;5.93;;;4.25;;
789;SDS011;378;48.844;9.156;2022-09-04T03:22:54;6.68;;;4.32;;
789;SDS011;378;48.844;9.156;2022-09-04T03:28:39;9.60;;;4.75;;
789;SDS011;378;48.844;9.156;2022-09-04T03:31:17;9.18;;;4.28;;
789;SDS011;378;48.844;9.156;2022-09-04T03:33:54;6.65;;;4.18;;
789;SDS011;378;48.844;9.156;2022-09-04T03:36:34;9.02;;;3.90;;
789;SDS011;378;48.844;9.156;2022-09-04T03:39:10;5.80;;;3.47;;
789;SDS011;378;48.844;9.156;2022-09-04T03:41:49;7.53;;;4.13;;
789;SDS011;378;48.844;9.156;2022-09-04T03:44:26;8.88;;;4.10;;
789;SDS011;378;48.844;9.156;2022-09-04T03:47:04;9.68;;;4.80;;
789;SDS011;378;48.844;9.156;2022-09-04T03:49:41;7.40;;;4.35;;
789;SDS011;378;48.844;9.156;2022-09-04T03:52:19;7.30;;;4.43;;
789;SDS011;378;48.844;9.156;2022-09-04T03:55:07;9.88;;;4.63;;
789;SDS011;378;48.844;9.156;2022-09-04T03:58:01;7.97;;;4.43;;
789;SDS011;378;48.844;9.156;2022-09-04T04:00:37;10.10;;;4.70;;
789;SDS011;378;48.844;9.156;2022-09-04T04:03:26;7.90;;;4.95;;
789;SDS011;378;48.844;9.156;2022-09-04T04:06:24;12.88;;;5.20;;
789;SDS011;378;48.844;9.156;2022-09-04T04:09:05;8.45;;;4.53;;
789;SDS011;378;48.844;9.156;2022-09-04T04:11:53;9.10;;;4.82;;
789;SDS011;378;48.844;9.156;2022-09-04T04:14:44;11.27;;;5.30;;
789;SDS011;378;48.844;9.156;2022-09-04T04:17:34;7.03;;;4.90;;
789;SDS011;378;48.844;9.156;2022-09-04T04:20:17;9.95;;;5.18;;
789;SDS011;378;48.844;9.156;2022-09-04T04:23:00;9.07;;;4.82;;
789;SDS011;378;48.844;9.156;2022-09-04T04:25:45;8.32;;;4.50;;
789;SDS011;378;48.844;9.156;2022-09-04T04:28:32;8.60;;;5.22;;
789;SDS011;378;48.844;9.156;2022-09-04T04:31:24;9.52;;;5.20;;
789;SDS011;378;48.844;9.156;2022-09-04T04:34:01;12.15;;;5.78;;
789;SDS011;378;48.844;9.156;2022-09-04T04:36:36;8.82;;;5.53;;
789;SDS011;378;48.844;9.156;2022-09-04T04:39:15;10.40;;;5.13;;
789;SDS011;378;48.844;9.156;2022-09-04T04:41:52;9.90;;;5.55;;
789;SDS011;378;48.844;9.156;2022-09-04T04:44:40;9.30;;;4.93;;
789;SDS011;378;48.844;9.156;2022-09-04T04:47:57;7.47;;;4.78;;
789;SDS011;378;48.844;9.156;2022-09-04T04:50:45;9.07;;;4.93;;
789;SDS011;378;48.844;9.156;2022-09-04T04:53:18;8.00;;;5.00;;
789;SDS011;378;48.844;9.156;2022-09-04T04:55:56;9.35;;;5.05;;
789;SDS011;378;48.844;9.156;2022-09-04T04:58:34;10.55;;;4.95;;
789;SDS011;378;48.844;9.156;2022-09-04T05:01:12;10.07;;;5.40;;
789;SDS011;378;48.844;9.156;2022-09-04T05:03:53;8.93;;;5.47;;
789;SDS011;378;48.844;9.156;2022-09-04T05:06:33;10.27;;;5.60;;
789;SDS011;378;48.844;9.156;2022-09-04T05:09:08;10.35;;;5.72;;
789;SDS011;378;48.844;9.156;2022-09-04T05:11:45;15.52;;;6.03;;
789;SDS011;378;48.844;9.156;2022-09-04T05:14:27;10.40;;;5.68;;
789;SDS011;378;48.844;9.156;2022-09-04T05:17:05;11.93;;;6.18;;
789;SDS011;378;48.844;9.156;2022-09-04T05:19:51;9.05;;;5.80;;
789;SDS011;378;48.844;9.156;2022-09-04T05:22:27;8.70;;;5.53;;
789;SDS011;378;48.844;9.156;2022-09-04T05:25:03;14.20;;;5.43;;
789;SDS011;378;48.844;9.156;2022-09-04T05:27:47;6.72;;;5.00;;
789;SDS011;378;48.844;9.156;2022-09-04T05:30:27;5.38;;;4.10;;
789;SDS011;378;48.844;9.156;2022-09-04T05:33:04;5.68;;;4.32;;
789;SDS011;378;48.844;9.156;2022-09-04T05:35:41;6.03;;;4.40;;
789;SDS011;378;48.844;9.156;2022-09-04T05:38:14;11.13;;;4.05;;
789;SDS011;378;48.844;9.156;2022-09-04T05:40:54;9.90;;;4.03;;
789;SDS011;378;48.844;9.156;2022-09-04T05:43:35;8.07;;;3.40;;
789;SDS011;378;48.844;9.156;2022-09-04T05:46:16;6.55;;;3.33;;
789;SDS011;378;48.844;9.156;2022-09-04T05:48:55;5.40;;;3.42;;
789;SDS011;378;48.844;9.156;2022-09-04T05:57:14;4.53;;;3.22;;
789;SDS011;378;48.844;9.156;2022-09-04T06:02:50;4.72;;;2.88;;
789;SDS011;378;48.844;9.156;2022-09-04T06:05:43;6.18;;;3.08;;
789;SDS011;378;48.844;9.156;2022-09-04T06:11:56;3.95;;;3.55;;
789;SDS011;378;48.844;9.156;2022-09-04T06:14:35;7.35;;;3.67;;
789;SDS011;378;48.844;9.156;2022-09-04T06:17:46;4.75;;;3.28;;
789;SDS011;378;48.844;9.156;2022-09-04T06:20:27;6.32;;;3.33;;
789;SDS011;378;48.844;9.156;2022-09-04T06:23:07;6.22;;;3.28;;
789;SDS011;378;48.844;9.156;2022-09-04T06:25:56;3.83;;;3.35;;
789;SDS011;378;48.844;9.156;2022-09-04T06:31:43;5.15;;;3.13;;
789;SDS011;378;48.844;9.156;2022-09-04T06:34:28;4.55;;;3.10;;
789;SDS011;378;48.844;9.156;2022-09-04T06:37:15;8.32;;;3.08;;
789;SDS011;378;48.844;9.156;2022-09-04T06:40:00;5.03;;;2.90;;
789;SDS011;378;48.844;9.156;2022-09-04T06:42:44;6.10;;;2.97;;
789;SDS011;378;48.844;9.156;2022-09-04T06:45:22;7.15;;;3.08;;
789;SDS011;378;48.844;9.156;2022-09-04T06:48:02;6.15;;;2.95;;
789;SDS011;378;48.844;9.156;2022-09-04T06:50:43;4.63;;;2.88;;
789;SDS011;378;48.844;9.156;2022-09-04T06:53:23;4.13;;;3.10;;
789;SDS011;378;48.844;9.156;2022-09-04T06:56:09;3.70;;;2.78;;
789;SDS011;378;48.844;9.156;2022-09-04T07:01:49;6.88;;;2.60;;
789;SDS011;378;48.844;9.156;2022-09-04T07:07:23;3.08;;;2.30;;
789;SDS011;378;48.844;9.156;2022-09-04T07:10:02;4.97;;;2.28;;
789;SDS011;378;48.844;9.156;2022-09-04T07:18:42;3.05;;;1.88;;
789;SDS011;378;48.844;9.156;2022-09-04T07:21:25;3.83;;;2.25;;
789;SDS011;378;48.844;9.156;2022-09-04T07:23:59;6.20;;;2.92;;
789;SDS011;378;48.844;9.156;2022-09-04T07:26:32;6.18;;;2.30;;
789;SDS011;378;48.844;9.156;2022-09-04T07:29:13;5.47;;;2.72;;
789;SDS011;378;48.844;9.156;2022-09-04T07:31:56;3.22;;;1.90;;
789;SDS011;378;48.844;9.156;2022-09-04T07:34:30;4.68;;;2.08;;
789;SDS011;378;48.844;9.156;2022-09-04T07:37:07;3.58;;;2.38;;
789;SDS011;378;48.844;9.156;2022-09-04T07:39:58;4.68;;;2.20;;
789;SDS011;378;48.844;9.156;2022-09-04T07:42:34;4.60;;;2.47;;
789;SDS011;378;48.844;9.156;2022-09-04T07:45:28;3.97;;;2.03;;
789;SDS011;378;48.844;9.156;2022-09-04T07:48:17;7.45;;;2.45;;
789;SDS011;378;48.844;9.156;2022-09-04T07:50:55;2.80;;;2.28;;
789;SDS011;378;48.844;9.156;2022-09-04T07:53:42;3.65;;;2.38;;
789;SDS011;378;48.844;9.156;2022-09-04T07:56:33;3.95;;;2.40;;
789;SDS011;378;48.844;9.156;2022-09-04T08:02:26;4.25;;;2.53;;
789;SDS011;378;48.844;9.156;2022-09-04T08:05:19;6.20;;;2.20;;
789;SDS011;378;48.844;9.156;2022-09-04T08:07:55;2.50;;;2.30;;
789;SDS011;378;48.844;9.156;2022-09-04T08:10:43;4.28;;;1.98;;
789;SDS011;378;48.844;9.156;2022-09-04T08:16:20;2.03;;;1.80;;
789;SDS011;378;48.844;9.156;2022-09-04T08:18:58;3.08;;;2.10;;
789;SDS011;378;48.844;9.156;2022-09-04T08:21:40;1.77;;;1.50;;
789;SDS011;378;48.844;9.156;2022-09-04T08:24:20;2.30;;;1.50;;
789;SDS011;378;48.844;9.156;2022-09-04T08:27:17;2.15;;;1.30;;
789;SDS011;378;48.844;9.156;2022-09-04T08:30:00;5.57;;;1.35;;
789;SDS011;378;48.844;9.156;2022-09-04T08:35:33;3.20;;;1.20;;
789;SDS011;378;48.844;9.156;2022-09-04T08:38:11;2.22;;;1.15;;
789;SDS011;378;48.844;9.156;2022-09-04T08:41:13;1.98;;;1.30;;
789;SDS011;378;48.844;9.156;2022-09-04T08:44:08;3.95;;;1.50;;
789;SDS011;378;48.844;9.156;2022-09-04T08:47:04;1.58;;;1.27;;
789;SDS011;378;48.844;9.156;2022-09-04T08:50:15;3.17;;;1.40;;
789;SDS011;378;48.844;9.156;2022-09-04T08:53:24;2.63;;;1.23;;
789;SDS011;378;48.844;9.156;2022-09-04T08:56:15;1.83;;;1.17;;
789;SDS011;378;48.844;9.156;2022-09-04T09:02:35;4.18;;;1.10;;
789;SDS011;378;48.844;9.156;2022-09-04T09:12:05;2.33;;;1.10;;
789;SDS011;378;48.844;9.156;2022-09-04T09:18:00;2.47;;;1.00;;
789;SDS011;378;48.844;9.156;2022-09-04T09:20:35;2.63;;;0.85;;
789;SDS011;378;48.844;9.156;2022-09-04T09:23:14;3.30;;;1.00;;
789;SDS011;378;48.844;9.156;2022-09-04T09:25:57;1.52;;;0.95;;
789;SDS011;378;48.844;9.156;2022-09-04T09:29:03;2.33;;;0.98;;
789;SDS011;378;48.844;9.156;2022-09-04T09:32:18;3.53;;;1.02;;
789;SDS011;378;48.844;9.156;2022-09-04T09:44:39;3.42;;;1.10;;
789;SDS011;378;48.844;9.156;2022-09-04T10:00:05;1.65;;;1.00;;
789;SDS011;378;48.844;9.156;2022-09-04T10:09:10;1.95;;;0.90;;
789;SDS011;378;48.844;9.156;2022-09-04T10:18:28;2.78;;;0.82;;
789;SDS011;378;48.844;9.156;2022-09-04T10:24:20;1.00;;;0.90;;
789;SDS011;378;48.844;9.156;2022-09-04T10:30:05;2.75;;;0.88;;
789;SDS011;378;48.844;9.156;2022-09-04T10:32:41;3.90;;;0.85;;
789;SDS011;378;48.844;9.156;2022-09-04T10:35:41;6.13;;;0.80;;
789;SDS011;378;48.844;9.156;2022-09-04T10:38:24;1.02;;;0.70;;
789;SDS011;378;48.844;9.156;2022-09-04T10:46:58;2.85;;;1.10;;
789;SDS011;378;48.844;9.156;2022-09-04T10:49:45;0.77;;;0.65;;
789;SDS011;378;48.844;9.156;2022-09-04T11:04:29;1.23;;;0.68;;
789;SDS011;378;48.844;9.156;2022-09-04T11:07:26;1.42;;;0.82;;
789;SDS011;378;48.844;9.156;2022-09-04T11:13:02;1.67;;;0.80;;
789;SDS011;378;48.844;9.156;2022-09-04T11:15:59;1.63;;;0.90;;
789;SDS011;378;48.844;9.156;2022-09-04T11:18:49;1.65;;;0.80;;
789;SDS011;378;48.844;9.156;2022-09-04T11:21:47;2.45;;;0.50;;
789;SDS011;378;48.844;9.156;2022-09-04T11:27:56;1.08;;;0.70;;
789;SDS011;378;48.844;9.156;2022-09-04T11:30:45;1.13;;;0.60;;
789;SDS011;378;48.844;9.156;2022-09-04T11:39:39;2.50;;;0.80;;
789;SDS011;378;48.844;9.156;2022-09-04T11:42:31;1.50;;;0.65;;
789;SDS011;378;48.844;9.156;2022-09-04T11:48:18;0.60;;;0.60;;
789;SDS011;378;48.844;9.156;2022-09-04T11:54:14;0.98;;;0.60;;
789;SDS011;378;48.844;9.156;2022-09-04T11:57:09;0.63;;;0.50;;
789;SDS011;378;48.844;9.156;2022-09-04T12:06:06;3.05;;;0.85;;
789;SDS011;378;48.844;9.156;2022-09-04T12:08:56;1.42;;;0.85;;
789;SDS011;378;48.844;9.156;2022-09-04T12:11:54;1.35;;;0.77;;
789;SDS011;378;48.844;9.156;2022-09-04T12:17:28;2.45;;;0.70;;
789;SDS011;378;48.844;9.156;2022-09-04T12:23:40;1.95;;;0.80;;
789;SDS011;378;48.844;9.156;2022-09-04T12:26:33;0.70;;;0.70;;
789;SDS011;378;48.844;9.156;2022-09-04T12:29:22;2.58;;;0.60;;
789;SDS011;378;48.844;9.156;2022-09-04T12:32:25;2.00;;;0.80;;
789;SDS011;378;48.844;9.156;2022-09-04T12:35:34;1.60;;;0.70;;
789;SDS011;378;48.844;9.156;2022-09-04T12:38:34;2.17;;;0.90;;
789;SDS011;378;48.844;9.156;2022-09-04T12:41:28;1.48;;;0.80;;
789;SDS011;378;48.844;9.156;2022-09-04T12:44:06;0.75;;;0.50;;
789;SDS011;378;48.844;9.156;2022-09-04T12:46:51;0.68;;;0.60;;
789;SDS011;378;48.844;9.156;2022-09-04T12:49:31;1.30;;;0.68;;
789;SDS011;378;48.844;9.156;2022-09-04T12:52:23;2.05;;;0.70;;
789;SDS011;378;48.844;9.156;2022-09-04T12:55:12;1.20;;;0.50;;
789;SDS011;378;48.844;9.156;2022-09-04T12:57:49;2.45;;;0.70;;
789;SDS011;378;48.844;9.156;2022-09-04T13:00:28;3.88;;;0.65;;
789;SDS011;378;48.844;9.156;2022-09-04T13:03:12;1.77;;;0.65;;
789;SDS011;378;48.844;9.156;2022-09-04T13:08:52;0.60;;;0.50;;
789;SDS011;378;48.844;9.156;2022-09-04T13:11:36;2.55;;;0.70;;
789;SDS011;378;48.844;9.156;2022-09-04T13:14:23;1.38;;;0.80;;
789;SDS011;378;48.844;9.156;2022-09-04T13:17:12;1.40;;;0.73;;
789;SDS011;378;48.844;9.156;2022-09-04T13:19:51;2.45;;;0.75;;
789;SDS011;378;48.844;9.156;2022-09-04T13:22:30;0.75;;;0.63;;
789;SDS011;378;48.844;9.156;2022-09-04T13:25:04;3.05;;;0.80;;
789;SDS011;378;48.844;9.156;2022-09-04T13:27:47;1.08;;;0.65;;
789;SDS011;378;48.844;9.156;2022-09-04T13:30:27;0.80;;;0.68;;
789;SDS011;378;48.844;9.156;2022-09-04T13:33:04;2.10;;;0.50;;
789;SDS011;378;48.844;9.156;2022-09-04T13:35:54;1.08;;;0.73;;
789;SDS011;378;48.844;9.156;2022-09-04T13:41:44;1.00;;;0.60;;
789;SDS011;378;48.844;9.156;2022-09-04T13:47:34;1.00;;;0.68;;
789;SDS011;378;48.844;9.156;2022-09-04T13:50:16;1.40;;;0.70;;
789;SDS011;378;48.844;9.156;2022-09-04T13:52:49;1.52;;;0.80;;
789;SDS011;378;48.844;9.156;2022-09-04T13:55:22;0.68;;;0.47;;
789;SDS011;378;48.844;9.156;2022-09-04T13:57:53;1.67;;;0.60;;
789;SDS011;378;48.844;9.156;2022-09-04T14:00:27;1.13;;;0.60;;
789;SDS011;378;48.844;9.156;2022-09-04T14:02:58;0.90;;;0.60;;
789;SDS011;378;48.844;9.156;2022-09-04T14:05:36;0.68;;;0.60;;
789;SDS011;378;48.844;9.156;2022-09-04T14:08:12;0.52;;;0.47;;
789;SDS011;378;48.844;9.156;2022-09-04T14:10:55;1.00;;;0.60;;
789;SDS011;378;48.844;9.156;2022-09-04T14:13:48;4.75;;;0.95;;
789;SDS011;378;48.844;9.156;2022-09-04T14:16:40;1.75;;;0.90;;
789;SDS011;378;48.844;9.156;2022-09-04T14:22:06;0.50;;;0.50;;
789;SDS011;378;48.844;9.156;2022-09-04T14:24:58;1.08;;;0.70;;
789;SDS011;378;48.844;9.156;2022-09-04T14:27:34;0.52;;;0.52;;
789;SDS011;378;48.844;9.156;2022-09-04T14:30:13;0.90;;;0.63;;
789;SDS011;378;48.844;9.156;2022-09-04T14:32:45;1.38;;;0.70;;
789;SDS011;378;48.844;9.156;2022-09-04T14:35:30;0.60;;;0.60;;
789;SDS011;378;48.844;9.156;2022-09-04T14:38:12;2.10;;;0.68;;
789;SDS011;378;48.844;9.156;2022-09-04T14:43:59;0.75;;;0.65;;
789;SDS011;378;48.844;9.156;2022-09-04T14:46:38;1.23;;;0.68;;
789;SDS011;378;48.844;9.156;2022-09-04T14:49:25;1.48;;;0.63;;
789;SDS011;378;48.844;9.156;2022-09-04T14:52:00;2.58;;;0.90;;
789;SDS011;378;48.844;9.156;2022-09-04T14:54:36;1.40;;;0.68;;
789;SDS011;378;48.844;9.156;2022-09-04T14:57:12;0.95;;;0.70;;
789;SDS011;378;48.844;9.156;2022-09-04T14:59:49;0.70;;;0.55;;
789;SDS011;378;48.844;9.156;2022-09-04T15:02:30;2.58;;;0.70;;
789;SDS011;378;48.844;9.156;2022-09-04T15:08:42;0.68;;;0.60;;
789;SDS011;378;48.844;9.156;2022-09-04T15:11:23;1.45;;;0.70;;
789;SDS011;378;48.844;9.156;2022-09-04T15:13:54;1.85;;;0.80;;
789;SDS011;378;48.844;9.156;2022-09-04T15:16:44;1.05;;;0.80;;
789;SDS011;378;48.844;9.156;2022-09-04T15:19:19;1.75;;;0.93;;
789;SDS011;378;48.844;9.156;2022-09-04T15:22:14;0.90;;;0.70;;
789;SDS011;378;48.844;9.156;2022-09-04T15:24:51;1.55;;;0.82;;
789;SDS011;378;48.844;9.156;2022-09-04T15:27:28;1.88;;;0.70;;
789;SDS011;378;48.844;9.156;2022-09-04T15:30:03;2.28;;;0.80;;
789;SDS011;378;48.844;9.156;2022-09-04T15:32:38;2.58;;;0.77;;
789;SDS011;378;48.844;9.156;2022-09-04T15:35:10;2.90;;;0.80;;
789;SDS011;378;48.844;9.156;2022-09-04T15:37:41;2.05;;;0.90;;
789;SDS011;378;48.844;9.156;2022-09-04T15:40:12;1.55;;;0.65;;
789;SDS011;378;48.844;9.156;2022-09-04T15:42:51;0.82;;;0.70;;
789;SDS011;378;48.844;9.156;2022-09-04T15:45:34;1.02;;;0.70;;
789;SDS011;378;48.844;9.156;2022-09-04T15:48:14;2.75;;;0.70;;
789;SDS011;378;48.844;9.156;2022-09-04T15:50:52;1.73;;;0.80;;
789;SDS011;378;48.844;9.156;2022-09-04T15:53:31;3.38;;;0.68;;
789;SDS011;378;48.844;9.156;2022-09-04T15:56:07;0.65;;;0.50;;
789;SDS011;378;48.844;9.156;2022-09-04T15:59:13;0.98;;;0.70;;
789;SDS011;378;48.844;9.156;2022-09-04T16:01:59;1.02;;;0.70;;
789;SDS011;378;48.844;9.156;2022-09-04T16:04:31;1.42;;;0.80;;
789;SDS011;378;48.844;9.156;2022-09-04T16:07:16;0.90;;;0.60;;
789;SDS011;378;48.844;9.156;2022-09-04T16:10:02;1.95;;;0.70;;
789;SDS011;378;48.844;9.156;2022-09-04T16:12:50;1.35;;;0.63;;
789;SDS011;378;48.844;9.156;2022-09-04T16:15:27;2.58;;;0.60;;
789;SDS011;378;48.844;9.156;2022-09-04T16:18:07;1.33;;;0.80;;
789;SDS011;378;48.844;9.156;2022-09-04T16:20:44;1.05;;;0.80;;
789;SDS011;378;48.844;9.156;2022-09-04T16:23:15;2.00;;;0.88;;
789;SDS011;378;48.844;9.156;2022-09-04T16:25:55;0.82;;;0.68;;
789;SDS011;378;48.844;9.156;2022-09-04T16:28:37;1.15;;;0.70;;
789;SDS011;378;48.844;9.156;2022-09-04T16:31:12;2.00;;;0.60;;
789;SDS011;378;48.844;9.156;2022-09-04T16:33:49;1.48;;;0.73;;
789;SDS011;378;48.844;9.156;2022-09-04T16:36:20;3.25;;;0.65;;
789;SDS011;378;48.844;9.156;2022-09-04T16:38:54;3.05;;;0.73;;
789;SDS011;378;48.844;9.156;2022-09-04T16:41:26;1.35;;;0.80;;
789;SDS011;378;48.844;9.156;2022-09-04T16:46:54;0.60;;;0.60;;
789;SDS011;378;48.844;9.156;2022-09-04T16:49:43;1.50;;;0.85;;
789;SDS011;378;48.844;9.156;2022-09-04T16:52:24;1.30;;;0.70;;
789;SDS011;378;48.844;9.156;2022-09-04T16:55:10;0.70;;;0.60;;
789;SDS011;378;48.844;9.156;2022-09-04T16:58:01;0.88;;;0.77;;
789;SDS011;378;48.844;9.156;2022-09-04T17:03:40;0.68;;;0.68;;
789;SDS011;378;48.844;9.156;2022-09-04T17:06:24;1.67;;;1.05;;
789;SDS011;378;48.844;9.156;2022-09-04T17:08:56;2.05;;;0.90;;
789;SDS011;378;48.844;9.156;2022-09-04T17:11:35;2.90;;;1.00;;
789;SDS011;378;48.844;9.156;2022-09-04T17:14:08;1.10;;;0.95;;
789;SDS011;378;48.844;9.156;2022-09-04T17:16:47;1.70;;;1.00;;
789;SDS011;378;48.844;9.156;2022-09-04T17:19:18;2.90;;;1.05;;
789;SDS011;378;48.844;9.156;2022-09-04T17:22:02;1.45;;;1.20;;
789;SDS011;378;48.844;9.156;2022-09-04T17:24:53;1.50;;;1.00;;
789;SDS011;378;48.844;9.156;2022-09-04T17:27:23;3.38;;;1.10;;
789;SDS011;378;48.844;9.156;2022-09-04T17:29:55;4.20;;;1.20;;
789;SDS011;378;48.844;9.156;2022-09-04T17:32:26;2.53;;;1.10;;
789;SDS011;378;48.844;9.156;2022-09-04T17:34:59;1.83;;;1.20;;
789;SDS011;378;48.844;9.156;2022-09-04T17:37:36;3.28;;;1.20;;
789;SDS011;378;48.844;9.156;2022-09-04T17:40:12;2.15;;;1.30;;
789;SDS011;378;48.844;9.156;2022-09-04T17:42:46;3.72;;;1.30;;
789;SDS011;378;48.844;9.156;2022-09-04T17:45:22;2.05;;;1.58;;
789;SDS011;378;48.844;9.156;2022-09-04T17:48:03;3.53;;;1.90;;
789;SDS011;378;48.844;9.156;2022-09-04T17:50:35;8.63;;;5.47;;
789;SDS011;378;48.844;9.156;2022-09-04T17:53:14;5.43;;;3.67;;
789;SDS011;378;48.844;9.156;2022-09-04T17:55:47;8.15;;;4.40;;
789;SDS011;378;48.844;9.156;2022-09-04T17:58:25;5.20;;;1.52;;
789;SDS011;378;48.844;9.156;2022-09-04T18:00:57;4.28;;;1.50;;
789;SDS011;378;48.844;9.156;2022-09-04T18:03:31;6.25;;;2.70;;
789;SDS011;378;48.844;9.156;2022-09-04T18:06:06;4.75;;;1.90;;
789;SDS011;378;48.844;9.156;2022-09-04T18:08:40;3.70;;;1.90;;
789;SDS011;378;48.844;9.156;2022-09-04T18:11:14;8.50;;;3.08;;
789;SDS011;378;48.844;9.156;2022-09-04T18:13:48;7.80;;;4.50;;
789;SDS011;378;48.844;9.156;2022-09-04T18:16:46;15.18;;;7.10;;
789;SDS011;378;48.844;9.156;2022-09-04T18:19:20;5.18;;;2.45;;
789;SDS011;378;48.844;9.156;2022-09-04T18:21:51;2.40;;;1.70;;
789;SDS011;378;48.844;9.156;2022-09-04T18:24:24;5.78;;;1.95;;
789;SDS011;378;48.844;9.156;2022-09-04T18:26:55;5.18;;;2.03;;
789;SDS011;378;48.844;9.156;2022-09-04T18:29:30;6.30;;;2.90;;
789;SDS011;378;48.844;9.156;2022-09-04T18:32:04;4.28;;;1.90;;
789;SDS011;378;48.844;9.156;2022-09-04T18:34:37;5.75;;;3.40;;
789;SDS011;378;48.844;9.156;2022-09-04T18:37:10;10.02;;;3.70;;
789;SDS011;378;48.844;9.156;2022-09-04T18:39:47;4.07;;;2.10;;
789;SDS011;378;48.844;9.156;2022-09-04T18:42:20;5.63;;;2.35;;
789;SDS011;378;48.844;9.156;2022-09-04T18:44:56;5.75;;;2.58;;
789;SDS011;378;48.844;9.156;2022-09-04T18:47:36;4.90;;;2.00;;
789;SDS011;378;48.844;9.156;2022-09-04T18:50:05;5.78;;;2.20;;
789;SDS011;378;48.844;9.156;2022-09-04T18:52:42;3.30;;;2.00;;
789;SDS011;378;48.844;9.156;2022-09-04T18:55:18;3.78;;;2.50;;
789;SDS011;378;48.844;9.156;2022-09-04T18:57:49;4.57;;;2.00;;
789;SDS011;378;48.844;9.156;2022-09-04T19:00:23;8.35;;;3.28;;
789;SDS011;378;48.844;9.156;2022-09-04T19:02:55;2.72;;;1.92;;
789;SDS011;378;48.844;9.156;2022-09-04T19:05:32;15.10;;;8.43;;
789;SDS011;378;48.844;9.156;2022-09-04T19:08:03;15.63;;;7.82;;
789;SDS011;378;48.844;9.156;2022-09-04T19:10:34;4.30;;;2.15;;
789;SDS011;378;48.844;9.156;2022-09-04T19:13:07;3.22;;;1.95;;
789;SDS011;378;48.844;9.156;2022-09-04T19:15:46;5.05;;;2.30;;
789;SDS011;378;48.844;9.156;2022-09-04T19:18:22;5.03;;;2.65;;
789;SDS011;378;48.844;9.156;2022-09-04T19:20:57;6.25;;;2.60;;
789;SDS011;378;48.844;9.156;2022-09-04T19:23:38;8.68;;;2.70;;
789;SDS011;378;48.844;9.156;2022-09-04T19:26:10;3.80;;;2.10;;
789;SDS011;378;48.844;9.156;2022-09-04T19:28:44;2.65;;;2.13;;
789;SDS011;378;48.844;9.156;2022-09-04T19:31:14;3.50;;;2.00;;
789;SDS011;378;48.844;9.156;2022-09-04T19:33:45;3.70;;;2.00;;
789;SDS011;378;48.844;9.156;2022-09-04T19:36:18;3.30;;;2.10;;
789;SDS011;378;48.844;9.156;2022-09-04T19:38:49;4.85;;;1.92;;
789;SDS011;378;48.844;9.156;2022-09-04T19:41:27;5.72;;;2.00;;
789;SDS011;378;48.844;9.156;2022-09-04T19:43:58;3.70;;;1.92;;
789;SDS011;378;48.844;9.156;2022-09-04T19:46:33;3.75;;;2.00;;
789;SDS011;378;48.844;9.156;2022-09-04T19:49:12;5.65;;;3.00;;
789;SDS011;378;48.844;9.156;2022-09-04T19:51:50;4.00;;;2.28;;
789;SDS011;378;48.844;9.156;2022-09-04T19:54:26;3.97;;;2.70;;
789;SDS011;378;48.844;9.156;2022-09-04T19:57:02;7.00;;;2.90;;
789;SDS011;378;48.844;9.156;2022-09-04T19:59:40;5.45;;;2.40;;
789;SDS011;378;48.844;9.156;2022-09-04T20:02:26;5.28;;;2.78;;
789;SDS011;378;48.844;9.156;2022-09-04T20:04:59;8.73;;;5.65;;